Aviation Digital Data Service (ADDS)

Output produced by METARs form (2228 UTC 30 August 2015)
found at http://aviationweather.gov/adds/metars/
 
KCLT 302059Z 3021/3118 13008KT P6SM VCSH BKN110 OVC150 
     TEMPO 3022/3024 P6SM -SHRA BKN060 OVC100 
     FM310000 15005KT 4SM SHRA BR SCT015 OVC050 
     FM310300 16004KT P6SM VCSH OVC035 
     FM310600 16003KT P6SM SCT008 BKN016 
     FM311500 06003KT P6SM BKN050